sensor_id;sensor_type;location;lat;lon;timestamp;temperature;humidity
22065;DHT22;11197;53.110;8.468;2022-10-26T00:00:47;10.80;99.90
22065;DHT22;11197;53.110;8.468;2022-10-26T00:03:17;10.80;99.90
22065;DHT22;11197;53.110;8.468;2022-10-26T00:05:43;10.80;99.90
22065;DHT22;11197;53.110;8.468;2022-10-26T00:08:11;10.80;99.90
22065;DHT22;11197;53.110;8.468;2022-10-26T00:10:38;10.80;99.90
22065;DHT22;11197;53.110;8.468;2022-10-26T00:13:05;10.80;99.90
22065;DHT22;11197;53.110;8.468;2022-10-26T00:15:31;10.70;99.90
22065;DHT22;11197;53.110;8.468;2022-10-26T00:17:57;10.70;99.90
22065;DHT22;11197;53.110;8.468;2022-10-26T00:20:22;10.70;99.90
22065;DHT22;11197;53.110;8.468;2022-10-26T00:22:48;10.60;99.90
22065;DHT22;11197;53.110;8.468;2022-10-26T00:25:14;10.60;99.90
22065;DHT22;11197;53.110;8.468;2022-10-26T00:27:40;10.60;99.90
22065;DHT22;11197;53.110;8.468;2022-10-26T00:30:06;10.60;99.90
22065;DHT22;11197;53.110;8.468;2022-10-26T00:32:32;10.50;99.90
22065;DHT22;11197;53.110;8.468;2022-10-26T00:34:58;10.50;99.90
22065;DHT22;11197;53.110;8.468;2022-10-26T00:37:25;10.50;99.90
22065;DHT22;11197;53.110;8.468;2022-10-26T00:39:51;10.50;99.90
22065;DHT22;11197;53.110;8.468;2022-10-26T00:42:21;10.50;99.90
22065;DHT22;11197;53.110;8.468;2022-10-26T00:49:54;10.40;99.90
22065;DHT22;11197;53.110;8.468;2022-10-26T00:52:21;10.40;99.90
22065;DHT22;11197;53.110;8.468;2022-10-26T00:54:48;10.40;99.90
22065;DHT22;11197;53.110;8.468;2022-10-26T00:57:15;10.40;99.90
22065;DHT22;11197;53.110;8.468;2022-10-26T00:59:43;10.40;99.90
22065;DHT22;11197;53.110;8.468;2022-10-26T01:02:10;10.40;99.90
22065;DHT22;11197;53.110;8.468;2022-10-26T01:04:36;10.40;99.90
22065;DHT22;11197;53.110;8.468;2022-10-26T01:07:03;10.40;99.90
22065;DHT22;11197;53.110;8.468;2022-10-26T01:09:31;10.40;99.90
22065;DHT22;11197;53.110;8.468;2022-10-26T01:11:58;10.30;99.90
22065;DHT22;11197;53.110;8.468;2022-10-26T01:14:26;10.30;99.90
22065;DHT22;11197;53.110;8.468;2022-10-26T01:22:42;10.30;99.90
22065;DHT22;11197;53.110;8.468;2022-10-26T01:27:50;10.30;99.90
22065;DHT22;11197;53.110;8.468;2022-10-26T01:41:14;10.30;99.90
22065;DHT22;11197;53.110;8.468;2022-10-26T01:43:53;10.20;99.90
22065;DHT22;11197;53.110;8.468;2022-10-26T01:46:21;10.30;99.90
22065;DHT22;11197;53.110;8.468;2022-10-26T01:48:51;10.20;99.90
22065;DHT22;11197;53.110;8.468;2022-10-26T01:51:19;10.20;99.90
22065;DHT22;11197;53.110;8.468;2022-10-26T01:53:46;10.20;99.90
22065;DHT22;11197;53.110;8.468;2022-10-26T01:56:33;10.20;99.90
22065;DHT22;11197;53.110;8.468;2022-10-26T02:01:53;10.20;99.90
22065;DHT22;11197;53.110;8.468;2022-10-26T02:07:28;10.20;99.90
22065;DHT22;11197;53.110;8.468;2022-10-26T02:13:09;10.20;99.90
22065;DHT22;11197;53.110;8.468;2022-10-26T02:16:20;10.20;99.90
22065;DHT22;11197;53.110;8.468;2022-10-26T02:24:37;10.20;99.90
22065;DHT22;11197;53.110;8.468;2022-10-26T02:27:05;10.20;99.90
22065;DHT22;11197;53.110;8.468;2022-10-26T02:29:33;10.20;99.90
22065;DHT22;11197;53.110;8.468;2022-10-26T02:32:01;10.20;99.90
22065;DHT22;11197;53.110;8.468;2022-10-26T02:34:29;10.20;99.90
22065;DHT22;11197;53.110;8.468;2022-10-26T02:36:58;10.20;99.90
22065;DHT22;11197;53.110;8.468;2022-10-26T02:39:27;10.20;99.90
22065;DHT22;11197;53.110;8.468;2022-10-26T02:42:02;10.20;99.90
22065;DHT22;11197;53.110;8.468;2022-10-26T02:44:40;10.20;99.90
22065;DHT22;11197;53.110;8.468;2022-10-26T02:47:08;10.10;99.90
22065;DHT22;11197;53.110;8.468;2022-10-26T02:49:34;10.10;99.90
22065;DHT22;11197;53.110;8.468;2022-10-26T02:52:22;10.10;99.90
22065;DHT22;11197;53.110;8.468;2022-10-26T02:54:53;10.10;99.90
22065;DHT22;11197;53.110;8.468;2022-10-26T02:57:28;10.10;99.90
22065;DHT22;11197;53.110;8.468;2022-10-26T02:59:56;10.10;99.90
22065;DHT22;11197;53.110;8.468;2022-10-26T03:02:22;10.10;99.90
22065;DHT22;11197;53.110;8.468;2022-10-26T03:04:49;10.10;99.90
22065;DHT22;11197;53.110;8.468;2022-10-26T03:07:25;10.10;99.90
22065;DHT22;11197;53.110;8.468;2022-10-26T03:09:51;10.00;99.90
22065;DHT22;11197;53.110;8.468;2022-10-26T03:12:16;10.00;99.90
22065;DHT22;11197;53.110;8.468;2022-10-26T03:14:42;10.00;99.90
22065;DHT22;11197;53.110;8.468;2022-10-26T03:17:08;10.00;99.90
22065;DHT22;11197;53.110;8.468;2022-10-26T03:19:34;10.00;99.90
22065;DHT22;11197;53.110;8.468;2022-10-26T03:22:00;10.00;99.90
22065;DHT22;11197;53.110;8.468;2022-10-26T03:24:26;10.00;99.90
22065;DHT22;11197;53.110;8.468;2022-10-26T03:26:55;10.00;99.90
22065;DHT22;11197;53.110;8.468;2022-10-26T03:29:21;10.00;99.90
22065;DHT22;11197;53.110;8.468;2022-10-26T03:31:46;10.00;99.90
22065;DHT22;11197;53.110;8.468;2022-10-26T03:34:13;10.00;99.90
22065;DHT22;11197;53.110;8.468;2022-10-26T03:36:39;9.90;99.90
22065;DHT22;11197;53.110;8.468;2022-10-26T03:39:05;9.90;99.90
22065;DHT22;11197;53.110;8.468;2022-10-26T03:41:31;9.90;99.90
22065;DHT22;11197;53.110;8.468;2022-10-26T03:43:56;10.00;99.90
22065;DHT22;11197;53.110;8.468;2022-10-26T03:46:22;9.90;99.90
22065;DHT22;11197;53.110;8.468;2022-10-26T03:48:48;9.90;99.90
22065;DHT22;11197;53.110;8.468;2022-10-26T03:51:14;10.00;99.90
22065;DHT22;11197;53.110;8.468;2022-10-26T03:53:40;9.90;99.90
22065;DHT22;11197;53.110;8.468;2022-10-26T03:56:06;10.00;99.90
22065;DHT22;11197;53.110;8.468;2022-10-26T03:58:31;9.90;99.90
22065;DHT22;11197;53.110;8.468;2022-10-26T04:01:01;9.90;99.90
22065;DHT22;11197;53.110;8.468;2022-10-26T04:03:27;9.90;99.90
22065;DHT22;11197;53.110;8.468;2022-10-26T04:05:53;9.90;99.90
22065;DHT22;11197;53.110;8.468;2022-10-26T04:08:19;9.90;99.90
22065;DHT22;11197;53.110;8.468;2022-10-26T04:10:45;9.90;99.90
22065;DHT22;11197;53.110;8.468;2022-10-26T04:13:12;9.90;99.90
22065;DHT22;11197;53.110;8.468;2022-10-26T04:15:38;9.90;99.90
22065;DHT22;11197;53.110;8.468;2022-10-26T04:18:03;9.90;99.90
22065;DHT22;11197;53.110;8.468;2022-10-26T04:20:30;9.90;99.90
22065;DHT22;11197;53.110;8.468;2022-10-26T04:23:02;9.90;99.90
22065;DHT22;11197;53.110;8.468;2022-10-26T04:25:29;9.90;99.90
22065;DHT22;11197;53.110;8.468;2022-10-26T04:27:55;9.90;99.90
22065;DHT22;11197;53.110;8.468;2022-10-26T04:30:21;9.90;99.90
22065;DHT22;11197;53.110;8.468;2022-10-26T04:32:47;9.90;99.90
22065;DHT22;11197;53.110;8.468;2022-10-26T04:35:13;9.90;99.90
22065;DHT22;11197;53.110;8.468;2022-10-26T04:37:39;9.80;99.90
22065;DHT22;11197;53.110;8.468;2022-10-26T04:40:05;9.90;99.90
22065;DHT22;11197;53.110;8.468;2022-10-26T04:42:40;9.80;99.90
22065;DHT22;11197;53.110;8.468;2022-10-26T04:45:06;9.80;99.90
22065;DHT22;11197;53.110;8.468;2022-10-26T04:47:32;9.80;99.90
22065;DHT22;11197;53.110;8.468;2022-10-26T04:49:58;9.80;99.90
22065;DHT22;11197;53.110;8.468;2022-10-26T04:52:23;9.80;99.90
22065;DHT22;11197;53.110;8.468;2022-10-26T04:54:49;9.80;99.90
22065;DHT22;11197;53.110;8.468;2022-10-26T04:57:15;9.70;99.90
22065;DHT22;11197;53.110;8.468;2022-10-26T04:59:41;9.70;99.90
22065;DHT22;11197;53.110;8.468;2022-10-26T05:02:07;9.70;99.90
22065;DHT22;11197;53.110;8.468;2022-10-26T05:04:32;9.70;99.90
22065;DHT22;11197;53.110;8.468;2022-10-26T05:06:58;9.70;99.90
22065;DHT22;11197;53.110;8.468;2022-10-26T05:09:24;9.60;99.90
22065;DHT22;11197;53.110;8.468;2022-10-26T05:11:50;9.60;99.90
22065;DHT22;11197;53.110;8.468;2022-10-26T05:14:16;9.60;99.90
22065;DHT22;11197;53.110;8.468;2022-10-26T05:16:42;9.60;99.90
22065;DHT22;11197;53.110;8.468;2022-10-26T05:19:09;9.60;99.90
22065;DHT22;11197;53.110;8.468;2022-10-26T05:21:35;9.60;99.90
22065;DHT22;11197;53.110;8.468;2022-10-26T05:24:01;9.50;99.90
22065;DHT22;11197;53.110;8.468;2022-10-26T05:26:27;9.50;99.90
22065;DHT22;11197;53.110;8.468;2022-10-26T05:28:53;9.50;99.90
22065;DHT22;11197;53.110;8.468;2022-10-26T05:31:20;9.50;99.90
22065;DHT22;11197;53.110;8.468;2022-10-26T05:33:50;9.50;99.90
22065;DHT22;11197;53.110;8.468;2022-10-26T05:36:19;9.50;99.90
22065;DHT22;11197;53.110;8.468;2022-10-26T05:38:46;9.40;99.90
22065;DHT22;11197;53.110;8.468;2022-10-26T05:41:12;9.40;99.90
22065;DHT22;11197;53.110;8.468;2022-10-26T05:43:37;9.40;99.90
22065;DHT22;11197;53.110;8.468;2022-10-26T05:46:04;9.40;99.90
22065;DHT22;11197;53.110;8.468;2022-10-26T05:48:30;9.40;99.90
22065;DHT22;11197;53.110;8.468;2022-10-26T05:51:00;9.40;99.90
22065;DHT22;11197;53.110;8.468;2022-10-26T05:53:26;9.30;99.90
22065;DHT22;11197;53.110;8.468;2022-10-26T05:55:54;9.30;99.90
22065;DHT22;11197;53.110;8.468;2022-10-26T05:58:20;9.30;99.90
22065;DHT22;11197;53.110;8.468;2022-10-26T06:05:59;9.30;99.90
22065;DHT22;11197;53.110;8.468;2022-10-26T06:08:27;9.20;99.90
22065;DHT22;11197;53.110;8.468;2022-10-26T06:10:54;9.20;99.90
22065;DHT22;11197;53.110;8.468;2022-10-26T06:13:21;9.20;99.90
22065;DHT22;11197;53.110;8.468;2022-10-26T06:16:00;9.20;99.90
22065;DHT22;11197;53.110;8.468;2022-10-26T06:23:59;9.10;99.90
22065;DHT22;11197;53.110;8.468;2022-10-26T06:29:49;9.10;99.90
22065;DHT22;11197;53.110;8.468;2022-10-26T06:32:22;9.10;99.90
22065;DHT22;11197;53.110;8.468;2022-10-26T06:34:52;9.10;99.90
22065;DHT22;11197;53.110;8.468;2022-10-26T06:37:21;9.00;99.90
22065;DHT22;11197;53.110;8.468;2022-10-26T06:39:48;9.00;99.90
22065;DHT22;11197;53.110;8.468;2022-10-26T06:42:15;9.00;99.90
22065;DHT22;11197;53.110;8.468;2022-10-26T06:44:41;9.00;99.90
22065;DHT22;11197;53.110;8.468;2022-10-26T06:47:27;9.00;99.90
22065;DHT22;11197;53.110;8.468;2022-10-26T06:53:40;9.00;99.90
22065;DHT22;11197;53.110;8.468;2022-10-26T06:55:47;9.00;99.90
22065;DHT22;11197;53.110;8.468;2022-10-26T06:58:20;8.90;99.90
22065;DHT22;11197;53.110;8.468;2022-10-26T07:00:49;8.90;99.90
22065;DHT22;11197;53.110;8.468;2022-10-26T07:03:15;8.90;99.90
22065;DHT22;11197;53.110;8.468;2022-10-26T07:05:42;9.00;99.90
22065;DHT22;11197;53.110;8.468;2022-10-26T07:08:08;8.90;99.90
22065;DHT22;11197;53.110;8.468;2022-10-26T07:10:36;9.00;99.90
22065;DHT22;11197;53.110;8.468;2022-10-26T07:13:08;9.00;99.90
22065;DHT22;11197;53.110;8.468;2022-10-26T07:15:36;9.00;99.90
22065;DHT22;11197;53.110;8.468;2022-10-26T07:18:04;9.10;99.90
22065;DHT22;11197;53.110;8.468;2022-10-26T07:20:31;9.10;99.90
22065;DHT22;11197;53.110;8.468;2022-10-26T07:22:57;9.20;99.90
22065;DHT22;11197;53.110;8.468;2022-10-26T07:25:24;9.20;99.90
22065;DHT22;11197;53.110;8.468;2022-10-26T07:27:50;9.30;99.90
22065;DHT22;11197;53.110;8.468;2022-10-26T07:30:16;9.30;99.90
22065;DHT22;11197;53.110;8.468;2022-10-26T07:32:42;9.40;99.90
22065;DHT22;11197;53.110;8.468;2022-10-26T07:35:08;9.40;99.90
22065;DHT22;11197;53.110;8.468;2022-10-26T07:37:34;9.50;99.90
22065;DHT22;11197;53.110;8.468;2022-10-26T07:40:00;9.50;99.90
22065;DHT22;11197;53.110;8.468;2022-10-26T07:42:26;9.50;99.90
22065;DHT22;11197;53.110;8.468;2022-10-26T07:44:52;9.60;99.90
22065;DHT22;11197;53.110;8.468;2022-10-26T07:47:18;9.60;99.90
22065;DHT22;11197;53.110;8.468;2022-10-26T07:49:44;9.70;99.90
22065;DHT22;11197;53.110;8.468;2022-10-26T07:52:09;9.70;99.90
22065;DHT22;11197;53.110;8.468;2022-10-26T07:54:35;9.70;99.90
22065;DHT22;11197;53.110;8.468;2022-10-26T07:57:01;9.80;99.90
22065;DHT22;11197;53.110;8.468;2022-10-26T07:59:27;9.80;99.90
22065;DHT22;11197;53.110;8.468;2022-10-26T08:01:53;9.90;99.90
22065;DHT22;11197;53.110;8.468;2022-10-26T08:04:19;9.90;99.90
22065;DHT22;11197;53.110;8.468;2022-10-26T08:06:46;9.90;99.90
22065;DHT22;11197;53.110;8.468;2022-10-26T08:09:13;10.00;99.90
22065;DHT22;11197;53.110;8.468;2022-10-26T08:11:39;10.00;99.90
22065;DHT22;11197;53.110;8.468;2022-10-26T08:14:05;10.10;99.90
22065;DHT22;11197;53.110;8.468;2022-10-26T08:16:31;10.10;99.90
22065;DHT22;11197;53.110;8.468;2022-10-26T08:18:59;10.20;99.90
22065;DHT22;11197;53.110;8.468;2022-10-26T08:21:25;10.20;99.90
22065;DHT22;11197;53.110;8.468;2022-10-26T08:23:50;10.20;99.90
22065;DHT22;11197;53.110;8.468;2022-10-26T08:26:16;10.30;99.90
22065;DHT22;11197;53.110;8.468;2022-10-26T08:28:43;10.30;99.90
22065;DHT22;11197;53.110;8.468;2022-10-26T08:31:09;10.30;99.90
22065;DHT22;11197;53.110;8.468;2022-10-26T08:33:34;10.30;99.90
22065;DHT22;11197;53.110;8.468;2022-10-26T08:36:03;10.40;99.90
22065;DHT22;11197;53.110;8.468;2022-10-26T08:38:29;10.40;99.90
22065;DHT22;11197;53.110;8.468;2022-10-26T08:40:56;10.40;99.90
22065;DHT22;11197;53.110;8.468;2022-10-26T08:43:29;10.50;99.90
22065;DHT22;11197;53.110;8.468;2022-10-26T08:46:01;10.60;99.90
22065;DHT22;11197;53.110;8.468;2022-10-26T08:48:34;10.60;99.90
22065;DHT22;11197;53.110;8.468;2022-10-26T08:51:06;10.60;99.90
22065;DHT22;11197;53.110;8.468;2022-10-26T08:53:46;10.70;99.90
22065;DHT22;11197;53.110;8.468;2022-10-26T08:56:23;10.80;99.90
22065;DHT22;11197;53.110;8.468;2022-10-26T08:58:56;10.80;99.90
22065;DHT22;11197;53.110;8.468;2022-10-26T09:01:24;10.90;99.90
22065;DHT22;11197;53.110;8.468;2022-10-26T09:03:50;10.90;99.90
22065;DHT22;11197;53.110;8.468;2022-10-26T09:06:42;11.00;99.90
22065;DHT22;11197;53.110;8.468;2022-10-26T09:09:16;11.10;99.90
22065;DHT22;11197;53.110;8.468;2022-10-26T09:25:46;11.50;99.90
22065;DHT22;11197;53.110;8.468;2022-10-26T09:28:17;11.50;99.90
22065;DHT22;11197;53.110;8.468;2022-10-26T09:30:44;11.60;99.90
22065;DHT22;11197;53.110;8.468;2022-10-26T09:33:14;11.70;99.90
22065;DHT22;11197;53.110;8.468;2022-10-26T09:35:50;11.70;99.90
22065;DHT22;11197;53.110;8.468;2022-10-26T09:41:08;11.80;99.90
22065;DHT22;11197;53.110;8.468;2022-10-26T09:43:45;11.90;99.90
22065;DHT22;11197;53.110;8.468;2022-10-26T09:46:27;11.90;99.90
22065;DHT22;11197;53.110;8.468;2022-10-26T09:48:57;12.00;99.90
22065;DHT22;11197;53.110;8.468;2022-10-26T09:51:25;12.00;99.90
22065;DHT22;11197;53.110;8.468;2022-10-26T09:53:54;12.10;99.90
22065;DHT22;11197;53.110;8.468;2022-10-26T09:56:21;12.10;99.90
22065;DHT22;11197;53.110;8.468;2022-10-26T09:58:53;12.10;99.90
22065;DHT22;11197;53.110;8.468;2022-10-26T10:06:36;12.30;99.90
22065;DHT22;11197;53.110;8.468;2022-10-26T10:09:12;12.40;99.90
22065;DHT22;11197;53.110;8.468;2022-10-26T10:14:07;12.40;99.90
22065;DHT22;11197;53.110;8.468;2022-10-26T10:16:33;12.50;99.90
22065;DHT22;11197;53.110;8.468;2022-10-26T10:19:00;12.50;99.90
22065;DHT22;11197;53.110;8.468;2022-10-26T10:21:40;12.50;99.90
22065;DHT22;11197;53.110;8.468;2022-10-26T10:24:25;12.60;99.90
22065;DHT22;11197;53.110;8.468;2022-10-26T10:27:03;12.60;99.90
22065;DHT22;11197;53.110;8.468;2022-10-26T10:29:32;12.70;99.90
22065;DHT22;11197;53.110;8.468;2022-10-26T10:32:01;12.70;99.90
22065;DHT22;11197;53.110;8.468;2022-10-26T10:34:32;12.80;99.90
22065;DHT22;11197;53.110;8.468;2022-10-26T10:36:59;12.90;99.90
22065;DHT22;11197;53.110;8.468;2022-10-26T10:39:36;12.90;99.90
22065;DHT22;11197;53.110;8.468;2022-10-26T10:42:05;12.90;99.90
22065;DHT22;11197;53.110;8.468;2022-10-26T10:44:32;13.00;99.90
22065;DHT22;11197;53.110;8.468;2022-10-26T10:47:04;13.10;99.90
22065;DHT22;11197;53.110;8.468;2022-10-26T10:49:31;13.00;99.90
22065;DHT22;11197;53.110;8.468;2022-10-26T10:51:58;13.10;99.90
22065;DHT22;11197;53.110;8.468;2022-10-26T10:54:32;13.10;99.90
22065;DHT22;11197;53.110;8.468;2022-10-26T10:57:24;13.20;99.90
22065;DHT22;11197;53.110;8.468;2022-10-26T11:08:11;13.40;99.90
22065;DHT22;11197;53.110;8.468;2022-10-26T11:10:51;13.50;99.90
22065;DHT22;11197;53.110;8.468;2022-10-26T11:13:38;13.50;99.90
22065;DHT22;11197;53.110;8.468;2022-10-26T11:16:12;13.60;99.90
22065;DHT22;11197;53.110;8.468;2022-10-26T11:18:47;13.70;99.90
22065;DHT22;11197;53.110;8.468;2022-10-26T11:21:26;13.70;99.90
22065;DHT22;11197;53.110;8.468;2022-10-26T11:29:26;13.90;99.90
22065;DHT22;11197;53.110;8.468;2022-10-26T11:32:01;14.00;99.90
22065;DHT22;11197;53.110;8.468;2022-10-26T11:37:31;14.10;99.90
22065;DHT22;11197;53.110;8.468;2022-10-26T11:40:24;14.20;99.90
22065;DHT22;11197;53.110;8.468;2022-10-26T11:43:20;14.30;99.90
22065;DHT22;11197;53.110;8.468;2022-10-26T11:46:16;14.30;99.90
22065;DHT22;11197;53.110;8.468;2022-10-26T11:51:20;14.50;99.90
22065;DHT22;11197;53.110;8.468;2022-10-26T11:53:48;14.50;99.90
22065;DHT22;11197;53.110;8.468;2022-10-26T11:56:31;14.60;99.90
22065;DHT22;11197;53.110;8.468;2022-10-26T11:58:59;14.60;99.90
22065;DHT22;11197;53.110;8.468;2022-10-26T12:01:27;14.60;99.90
22065;DHT22;11197;53.110;8.468;2022-10-26T12:03:56;14.70;99.90
22065;DHT22;11197;53.110;8.468;2022-10-26T12:06:27;14.80;99.90
22065;DHT22;11197;53.110;8.468;2022-10-26T12:08:56;14.90;99.90
22065;DHT22;11197;53.110;8.468;2022-10-26T12:11:33;14.90;99.90
22065;DHT22;11197;53.110;8.468;2022-10-26T12:14:33;14.90;99.90
22065;DHT22;11197;53.110;8.468;2022-10-26T12:22:37;15.10;99.90
22065;DHT22;11197;53.110;8.468;2022-10-26T12:35:32;15.20;99.90
22065;DHT22;11197;53.110;8.468;2022-10-26T12:38:00;15.30;99.90
22065;DHT22;11197;53.110;8.468;2022-10-26T12:45:44;15.30;99.90
22065;DHT22;11197;53.110;8.468;2022-10-26T12:57:14;15.60;99.90
22065;DHT22;11197;53.110;8.468;2022-10-26T13:00:03;15.70;99.90
22065;DHT22;11197;53.110;8.468;2022-10-26T13:08:15;15.90;99.90
22065;DHT22;11197;53.110;8.468;2022-10-26T13:11:03;16.00;99.90
22065;DHT22;11197;53.110;8.468;2022-10-26T13:13:32;16.10;99.90
22065;DHT22;11197;53.110;8.468;2022-10-26T13:16:01;16.10;99.90
22065;DHT22;11197;53.110;8.468;2022-10-26T13:18:30;16.10;99.90
22065;DHT22;11197;53.110;8.468;2022-10-26T13:21:13;16.20;99.90
22065;DHT22;11197;53.110;8.468;2022-10-26T13:23:54;16.10;99.90
22065;DHT22;11197;53.110;8.468;2022-10-26T13:26:27;16.20;99.90
22065;DHT22;11197;53.110;8.468;2022-10-26T13:28:55;16.30;99.90
22065;DHT22;11197;53.110;8.468;2022-10-26T13:34:35;16.40;99.90
22065;DHT22;11197;53.110;8.468;2022-10-26T13:37:11;16.50;99.90
22065;DHT22;11197;53.110;8.468;2022-10-26T13:39:44;16.50;99.90
22065;DHT22;11197;53.110;8.468;2022-10-26T13:42:19;16.50;99.90
22065;DHT22;11197;53.110;8.468;2022-10-26T13:44:59;16.50;99.90
22065;DHT22;11197;53.110;8.468;2022-10-26T13:47:43;16.50;99.90
22065;DHT22;11197;53.110;8.468;2022-10-26T13:50:14;16.50;99.90
22065;DHT22;11197;53.110;8.468;2022-10-26T13:52:56;16.40;99.90
22065;DHT22;11197;53.110;8.468;2022-10-26T13:55:31;16.50;99.90
22065;DHT22;11197;53.110;8.468;2022-10-26T13:58:13;16.50;99.90
22065;DHT22;11197;53.110;8.468;2022-10-26T14:01:10;16.50;99.90
22065;DHT22;11197;53.110;8.468;2022-10-26T14:03:37;16.50;99.90
22065;DHT22;11197;53.110;8.468;2022-10-26T14:08:47;16.50;99.90
22065;DHT22;11197;53.110;8.468;2022-10-26T14:11:17;16.50;99.90
22065;DHT22;11197;53.110;8.468;2022-10-26T14:13:45;16.50;99.90
22065;DHT22;11197;53.110;8.468;2022-10-26T14:16:13;16.50;99.90
22065;DHT22;11197;53.110;8.468;2022-10-26T14:18:41;16.50;99.90
22065;DHT22;11197;53.110;8.468;2022-10-26T14:21:13;16.50;99.90
22065;DHT22;11197;53.110;8.468;2022-10-26T14:26:28;16.50;99.90
22065;DHT22;11197;53.110;8.468;2022-10-26T14:28:59;16.50;99.90
22065;DHT22;11197;53.110;8.468;2022-10-26T14:31:28;16.50;99.90
22065;DHT22;11197;53.110;8.468;2022-10-26T14:33:55;16.50;99.90
22065;DHT22;11197;53.110;8.468;2022-10-26T14:36:28;16.50;99.90
22065;DHT22;11197;53.110;8.468;2022-10-26T14:39:02;16.50;99.90
22065;DHT22;11197;53.110;8.468;2022-10-26T14:41:31;16.50;99.90
22065;DHT22;11197;53.110;8.468;2022-10-26T14:43:59;16.60;99.90
22065;DHT22;11197;53.110;8.468;2022-10-26T14:46:44;16.60;99.90
22065;DHT22;11197;53.110;8.468;2022-10-26T14:49:25;16.60;99.90
22065;DHT22;11197;53.110;8.468;2022-10-26T14:52:02;16.60;99.90
22065;DHT22;11197;53.110;8.468;2022-10-26T14:54:29;16.60;99.90
22065;DHT22;11197;53.110;8.468;2022-10-26T14:56:55;16.70;99.90
22065;DHT22;11197;53.110;8.468;2022-10-26T15:01:56;16.60;99.90
22065;DHT22;11197;53.110;8.468;2022-10-26T15:04:35;16.60;99.90
22065;DHT22;11197;53.110;8.468;2022-10-26T15:07:15;16.60;99.90
22065;DHT22;11197;53.110;8.468;2022-10-26T15:15:21;16.50;99.90
22065;DHT22;11197;53.110;8.468;2022-10-26T15:17:54;16.50;99.90
22065;DHT22;11197;53.110;8.468;2022-10-26T15:20:22;16.50;99.90
22065;DHT22;11197;53.110;8.468;2022-10-26T15:23:00;16.40;99.90
22065;DHT22;11197;53.110;8.468;2022-10-26T15:25:29;16.40;99.90
22065;DHT22;11197;53.110;8.468;2022-10-26T15:33:31;16.30;99.90
22065;DHT22;11197;53.110;8.468;2022-10-26T15:38:36;16.30;99.90
22065;DHT22;11197;53.110;8.468;2022-10-26T15:43:49;16.30;99.90
22065;DHT22;11197;53.110;8.468;2022-10-26T15:46:16;16.40;99.90
22065;DHT22;11197;53.110;8.468;2022-10-26T15:49:03;16.40;99.90
22065;DHT22;11197;53.110;8.468;2022-10-26T15:51:31;16.40;99.90
22065;DHT22;11197;53.110;8.468;2022-10-26T15:54:15;16.30;99.90
22065;DHT22;11197;53.110;8.468;2022-10-26T15:56:42;16.30;99.90
22065;DHT22;11197;53.110;8.468;2022-10-26T15:59:27;16.20;99.90
22065;DHT22;11197;53.110;8.468;2022-10-26T16:01:58;16.20;99.90
22065;DHT22;11197;53.110;8.468;2022-10-26T16:04:24;16.10;99.90
22065;DHT22;11197;53.110;8.468;2022-10-26T16:06:53;16.10;99.90
22065;DHT22;11197;53.110;8.468;2022-10-26T16:09:23;16.00;99.90
22065;DHT22;11197;53.110;8.468;2022-10-26T16:11:51;16.00;99.90
22065;DHT22;11197;53.110;8.468;2022-10-26T16:14:20;15.90;99.90
22065;DHT22;11197;53.110;8.468;2022-10-26T16:16:46;15.90;99.90
22065;DHT22;11197;53.110;8.468;2022-10-26T16:19:16;15.90;99.90
22065;DHT22;11197;53.110;8.468;2022-10-26T16:21:53;15.80;99.90
22065;DHT22;11197;53.110;8.468;2022-10-26T16:24:19;15.80;99.90
22065;DHT22;11197;53.110;8.468;2022-10-26T16:26:45;15.70;99.90
22065;DHT22;11197;53.110;8.468;2022-10-26T16:29:11;15.70;99.90
22065;DHT22;11197;53.110;8.468;2022-10-26T16:31:37;15.60;99.90
22065;DHT22;11197;53.110;8.468;2022-10-26T16:34:03;15.60;99.90
22065;DHT22;11197;53.110;8.468;2022-10-26T16:36:29;15.50;99.90
22065;DHT22;11197;53.110;8.468;2022-10-26T16:38:57;15.50;99.90
22065;DHT22;11197;53.110;8.468;2022-10-26T16:41:23;15.50;99.90
22065;DHT22;11197;53.110;8.468;2022-10-26T16:43:49;15.40;99.90
22065;DHT22;11197;53.110;8.468;2022-10-26T16:46:17;15.40;99.90
22065;DHT22;11197;53.110;8.468;2022-10-26T16:48:45;15.30;99.90
22065;DHT22;11197;53.110;8.468;2022-10-26T16:51:19;15.30;99.90
22065;DHT22;11197;53.110;8.468;2022-10-26T16:53:49;15.20;99.90
22065;DHT22;11197;53.110;8.468;2022-10-26T16:56:18;15.20;99.90
22065;DHT22;11197;53.110;8.468;2022-10-26T16:58:45;15.20;99.90
22065;DHT22;11197;53.110;8.468;2022-10-26T17:01:11;15.10;99.90
22065;DHT22;11197;53.110;8.468;2022-10-26T17:03:38;15.10;99.90
22065;DHT22;11197;53.110;8.468;2022-10-26T17:06:06;15.10;99.90
22065;DHT22;11197;53.110;8.468;2022-10-26T17:08:34;15.00;99.90
22065;DHT22;11197;53.110;8.468;2022-10-26T17:11:08;15.00;99.90
22065;DHT22;11197;53.110;8.468;2022-10-26T17:13:35;15.00;99.90
22065;DHT22;11197;53.110;8.468;2022-10-26T17:18:39;15.00;99.90
22065;DHT22;11197;53.110;8.468;2022-10-26T17:21:07;14.90;99.90
22065;DHT22;11197;53.110;8.468;2022-10-26T17:23:35;14.90;99.90
22065;DHT22;11197;53.110;8.468;2022-10-26T17:26:02;14.90;99.90
22065;DHT22;11197;53.110;8.468;2022-10-26T17:28:29;14.90;99.90
22065;DHT22;11197;53.110;8.468;2022-10-26T17:31:15;14.80;99.90
22065;DHT22;11197;53.110;8.468;2022-10-26T17:33:43;14.80;99.90
22065;DHT22;11197;53.110;8.468;2022-10-26T17:36:11;14.80;99.90
22065;DHT22;11197;53.110;8.468;2022-10-26T17:38:39;14.80;99.90
22065;DHT22;11197;53.110;8.468;2022-10-26T17:41:10;14.80;99.90
22065;DHT22;11197;53.110;8.468;2022-10-26T17:43:38;14.80;99.90
22065;DHT22;11197;53.110;8.468;2022-10-26T17:46:07;14.80;99.90
22065;DHT22;11197;53.110;8.468;2022-10-26T17:48:33;14.80;99.90
22065;DHT22;11197;53.110;8.468;2022-10-26T17:51:01;14.70;99.90
22065;DHT22;11197;53.110;8.468;2022-10-26T17:53:28;14.70;99.90
22065;DHT22;11197;53.110;8.468;2022-10-26T17:56:12;14.70;99.90
22065;DHT22;11197;53.110;8.468;2022-10-26T17:58:39;14.70;99.90
22065;DHT22;11197;53.110;8.468;2022-10-26T18:01:08;14.60;99.90
22065;DHT22;11197;53.110;8.468;2022-10-26T18:03:35;14.60;99.90
22065;DHT22;11197;53.110;8.468;2022-10-26T18:06:01;14.70;99.90
22065;DHT22;11197;53.110;8.468;2022-10-26T18:08:31;14.70;99.90
22065;DHT22;11197;53.110;8.468;2022-10-26T18:10:57;14.70;99.90
22065;DHT22;11197;53.110;8.468;2022-10-26T18:13:27;14.70;99.90
22065;DHT22;11197;53.110;8.468;2022-10-26T18:15:54;14.60;99.90
22065;DHT22;11197;53.110;8.468;2022-10-26T18:18:20;14.60;99.90
22065;DHT22;11197;53.110;8.468;2022-10-26T18:20:46;14.60;99.90
22065;DHT22;11197;53.110;8.468;2022-10-26T18:23:12;14.60;99.90
22065;DHT22;11197;53.110;8.468;2022-10-26T18:25:41;14.60;99.90
22065;DHT22;11197;53.110;8.468;2022-10-26T18:28:09;14.50;99.90
22065;DHT22;11197;53.110;8.468;2022-10-26T18:30:36;14.60;99.90
22065;DHT22;11197;53.110;8.468;2022-10-26T18:33:04;14.50;99.90
22065;DHT22;11197;53.110;8.468;2022-10-26T18:35:31;14.50;99.90
22065;DHT22;11197;53.110;8.468;2022-10-26T18:37:57;14.50;99.90